createdAt,value
2018-09-14T06:23:53.665Z,16.23
2018-09-14T06:26:22.097Z,16.26
2018-09-14T06:28:50.585Z,16.34
2018-09-14T06:31:19.059Z,16.34
2018-09-14T06:33:51.453Z,16.27
2018-09-14T06:36:21.686Z,16.27
2018-09-14T06:39:12.735Z,16.36
2018-09-14T06:41:41.297Z,16.39
2018-09-14T06:44:10.919Z,16.39
2018-09-14T06:46:39.369Z,16.36
2018-09-14T06:49:07.880Z,16.42
2018-09-14T06:51:37.935Z,16.44
2018-09-14T06:54:06.632Z,16.40
2018-09-14T06:56:35.099Z,16.41
2018-09-14T06:59:03.682Z,16.42
2018-09-14T07:01:32.178Z,16.51
2018-09-14T07:04:01.013Z,16.40
2018-09-14T07:06:29.670Z,16.42
2018-09-14T07:08:58.145Z,16.45
2018-09-14T07:11:26.689Z,16.49
2018-09-14T07:13:55.189Z,16.56
2018-09-14T07:16:23.693Z,16.55
2018-09-14T07:18:52.213Z,16.60
2018-09-14T07:21:20.729Z,16.67
2018-09-14T07:23:49.232Z,16.73
2018-09-14T07:26:21.012Z,16.79
2018-09-14T07:28:50.101Z,16.80
2018-09-14T07:31:18.713Z,16.84
2018-09-14T07:33:47.329Z,16.80
2018-09-14T07:36:15.812Z,16.89
2018-09-14T07:38:44.326Z,16.83
2018-09-14T07:41:12.808Z,16.97
2018-09-14T07:43:41.368Z,17.20
2018-09-14T07:46:09.846Z,17.25
2018-09-14T07:48:38.354Z,17.19
2018-09-14T07:51:07.193Z,17.17
2018-09-14T07:53:35.700Z,17.25
2018-09-14T07:56:04.179Z,17.35
2018-09-14T07:58:32.650Z,17.46
2018-09-14T08:01:01.330Z,17.47
2018-09-14T08:03:29.833Z,17.57
2018-09-14T08:05:58.364Z,17.61
2018-09-14T08:08:26.838Z,17.62
2018-09-14T08:10:55.345Z,17.61
2018-09-14T08:13:23.903Z,17.69
2018-09-14T08:15:52.397Z,17.84
2018-09-14T08:18:20.879Z,17.84
2018-09-14T08:20:49.394Z,17.74
2018-09-14T08:23:17.911Z,17.70
2018-09-14T08:25:46.429Z,17.84
2018-09-14T08:28:14.909Z,17.97
2018-09-14T08:30:43.426Z,17.82
2018-09-14T08:33:11.918Z,17.91
2018-09-14T08:35:40.458Z,18.03
2018-09-14T08:38:08.939Z,17.97
2018-09-14T08:40:37.434Z,17.86
2018-09-14T08:43:05.958Z,18.04
2018-09-14T08:45:34.461Z,18.26
2018-09-14T08:48:03.050Z,18.23
2018-09-14T08:50:31.514Z,18.40
2018-09-14T08:53:00.025Z,18.42
2018-09-14T08:55:28.558Z,18.39
2018-09-14T08:57:57.105Z,18.29
2018-09-14T09:00:25.725Z,18.22
2018-09-14T09:02:55.196Z,18.16
2018-09-14T09:05:24.702Z,18.18
2018-09-14T09:07:53.225Z,18.20
2018-09-14T09:10:21.773Z,18.08
2018-09-14T09:12:50.250Z,18.10
2018-09-14T09:15:18.866Z,18.23
2018-09-14T09:17:47.415Z,18.46
2018-09-14T09:20:16.304Z,18.38
2018-09-14T09:22:45.289Z,18.53
2018-09-14T09:25:13.838Z,18.63
2018-09-14T09:27:42.363Z,18.88
2018-09-14T09:30:10.896Z,18.93
2018-09-14T09:32:39.452Z,18.97
2018-09-14T09:35:08.006Z,18.70
2018-09-14T09:37:36.673Z,18.85
2018-09-14T09:40:05.275Z,18.92
2018-09-14T09:42:34.234Z,18.99
2018-09-14T09:45:02.754Z,18.92
2018-09-14T09:47:31.312Z,19.01
2018-09-14T09:49:59.887Z,19.23
2018-09-14T09:52:29.141Z,19.31
2018-09-14T09:54:57.677Z,19.47
2018-09-14T09:57:27.330Z,19.81
2018-09-14T09:59:57.605Z,19.95
2018-09-14T10:02:29.118Z,20.06
2018-09-14T10:05:09.974Z,20.26
2018-09-14T10:07:38.779Z,20.32
2018-09-14T10:10:10.750Z,20.39
2018-09-14T10:12:39.327Z,20.63
2018-09-14T10:15:18.554Z,20.68
2018-09-14T10:17:47.898Z,20.55
2018-09-14T10:20:19.571Z,20.39
2018-09-14T10:22:48.128Z,20.53
2018-09-14T10:25:16.617Z,20.43
2018-09-14T10:27:45.148Z,20.56
2018-09-14T10:30:18.840Z,20.72
2018-09-14T10:32:47.437Z,21.02
2018-09-14T10:35:15.966Z,21.81
2018-09-14T10:37:44.535Z,22.03
2018-09-14T10:40:13.107Z,22.18
2018-09-14T10:42:41.642Z,22.35
2018-09-14T10:45:10.196Z,22.38
2018-09-14T10:47:38.714Z,22.48
2018-09-14T10:50:07.309Z,22.90
2018-09-14T10:52:35.840Z,23.50
2018-09-14T10:55:04.374Z,24.33
2018-09-14T10:57:32.953Z,24.17
2018-09-14T11:00:01.460Z,23.66
2018-09-14T11:02:29.995Z,24.20
2018-09-14T11:04:58.473Z,24.43
2018-09-14T11:07:27.053Z,24.20
2018-09-14T11:09:55.603Z,24.22
2018-09-14T11:12:25.065Z,24.45
2018-09-14T11:14:54.643Z,24.21
2018-09-14T11:17:23.284Z,24.59
2018-09-14T11:19:57.414Z,24.56
2018-09-14T11:22:26.834Z,24.56
2018-09-14T11:24:58.790Z,25.67
2018-09-14T11:27:28.857Z,26.57
2018-09-14T11:29:57.438Z,26.61
2018-09-14T11:32:26.304Z,25.79
2018-09-14T11:34:56.728Z,25.01
2018-09-14T11:37:26.483Z,24.12
2018-09-14T11:39:57.216Z,24.25
2018-09-14T11:42:28.304Z,25.45
2018-09-14T11:45:01.635Z,26.21
2018-09-14T11:47:35.497Z,26.36
2018-09-14T11:50:04.191Z,25.64
2018-09-14T11:52:34.089Z,24.95
2018-09-14T11:55:06.824Z,24.85
2018-09-14T11:57:35.452Z,24.51
2018-09-14T12:00:04.091Z,24.44
2018-09-14T12:02:32.629Z,24.47
2018-09-14T12:05:01.199Z,24.82
2018-09-14T12:07:33.892Z,24.67
2018-09-14T12:10:02.424Z,24.57
2018-09-14T12:19:31.671Z,23.99
2018-09-14T12:22:00.242Z,23.75
2018-09-14T12:24:29.496Z,24.00
2018-09-14T12:26:58.222Z,24.26
2018-09-14T12:29:34.271Z,24.69
2018-09-14T12:32:02.841Z,24.14
2018-09-14T12:34:32.144Z,24.42
2018-09-14T12:37:10.217Z,24.32
2018-09-14T12:39:38.692Z,24.81
2018-09-14T12:42:07.206Z,26.52
2018-09-14T12:44:35.705Z,27.52
2018-09-14T12:47:04.339Z,28.51
2018-09-14T12:49:33.861Z,27.86
2018-09-14T12:52:03.148Z,27.12
2018-09-14T12:54:31.694Z,27.60
2018-09-14T12:57:00.249Z,28.02
2018-09-14T12:59:28.815Z,27.10
2018-09-14T13:01:57.322Z,26.46
2018-09-14T13:04:25.978Z,25.79
2018-09-14T13:06:54.503Z,25.40
2018-09-14T13:09:23.111Z,25.30
2018-09-14T13:11:51.614Z,24.99
2018-09-14T13:14:21.085Z,24.70
2018-09-14T13:16:50.152Z,24.59
2018-09-14T13:19:18.688Z,24.64
2018-09-14T13:21:47.208Z,24.51
2018-09-14T13:24:16.114Z,24.05
2018-09-14T13:26:44.648Z,23.80
2018-09-14T13:29:13.187Z,23.69
2018-09-14T13:31:41.683Z,23.71
2018-09-14T13:34:10.189Z,23.85
2018-09-14T13:36:38.686Z,23.63
2018-09-14T13:39:08.674Z,23.63
2018-09-14T13:41:37.182Z,23.73
2018-09-14T13:44:05.722Z,23.98
2018-09-14T13:46:34.188Z,24.49
2018-09-14T13:49:02.752Z,25.39
2018-09-14T13:51:31.244Z,26.93
2018-09-14T13:53:59.772Z,27.25
2018-09-14T13:56:28.293Z,27.39
2018-09-14T13:58:56.874Z,27.86
2018-09-14T14:01:25.450Z,28.90
2018-09-14T14:03:54.098Z,28.72
2018-09-14T14:06:22.589Z,29.26
2018-09-14T14:08:51.110Z,29.59
2018-09-14T14:11:19.651Z,29.51
2018-09-14T14:13:48.264Z,29.63
2018-09-14T14:16:18.126Z,30.07
2018-09-14T14:18:46.722Z,28.64
2018-09-14T14:21:18.806Z,28.85
2018-09-14T14:23:47.343Z,29.01
2018-09-14T14:26:15.850Z,28.43
2018-09-14T14:28:48.371Z,27.59
2018-09-14T14:31:16.862Z,27.52
2018-09-14T14:33:45.400Z,28.57
2018-09-14T14:36:14.679Z,29.60
2018-09-14T14:38:43.308Z,29.16
2018-09-14T14:41:11.832Z,29.27
2018-09-14T14:43:40.398Z,29.40
2018-09-14T14:46:09.007Z,28.99
2018-09-14T14:48:37.562Z,28.96
2018-09-14T14:51:06.101Z,28.55
2018-09-14T14:53:34.617Z,28.02
2018-09-14T14:56:03.184Z,27.77
2018-09-14T14:58:31.688Z,27.07
2018-09-14T15:01:00.204Z,26.01
2018-09-14T15:03:28.769Z,25.93
2018-09-14T15:05:57.456Z,26.49
2018-09-14T15:08:26.034Z,26.08
2018-09-14T15:10:54.535Z,27.24
2018-09-14T15:13:23.084Z,28.35
2018-09-14T15:15:51.822Z,28.49
2018-09-14T15:18:20.311Z,28.45
2018-09-14T15:20:48.849Z,28.33
2018-09-14T15:23:17.330Z,28.53
2018-09-14T15:25:45.904Z,28.43
2018-09-14T15:28:14.385Z,28.82
2018-09-14T15:30:42.885Z,28.99
2018-09-14T15:33:11.375Z,29.37
2018-09-14T15:35:39.902Z,29.87
2018-09-14T15:38:08.437Z,29.91
2018-09-14T15:40:36.995Z,29.66
2018-09-14T15:43:05.490Z,28.61
2018-09-14T15:45:34.019Z,28.46
2018-09-14T15:48:02.484Z,28.93
2018-09-14T15:50:31.053Z,29.46
2018-09-14T15:52:59.537Z,29.37
2018-09-14T15:55:28.099Z,29.37
2018-09-14T15:57:56.601Z,28.87
2018-09-14T16:00:25.107Z,28.60
2018-09-14T16:02:54.357Z,28.38
2018-09-14T16:05:22.861Z,28.53
2018-09-14T16:07:51.357Z,28.19
2018-09-14T16:10:19.865Z,28.38
2018-09-14T16:12:48.336Z,28.53
2018-09-14T16:15:16.841Z,29.07
2018-09-14T16:17:45.343Z,28.71
2018-09-14T16:20:13.841Z,28.33
2018-09-14T16:22:42.317Z,28.09
2018-09-14T16:25:23.069Z,27.54
2018-09-14T16:27:52.292Z,27.24
2018-09-14T16:30:20.785Z,27.53
2018-09-14T16:32:49.406Z,27.04
2018-09-14T16:35:17.943Z,26.34
2018-09-14T16:37:46.437Z,25.32
2018-09-14T16:40:14.973Z,24.16
2018-09-14T16:42:43.455Z,23.51
2018-09-14T16:45:12.030Z,23.31
2018-09-14T16:47:40.646Z,23.09
2018-09-14T16:50:18.746Z,22.52
2018-09-14T16:52:48.362Z,21.98
2018-09-14T16:55:16.889Z,22.20
2018-09-14T16:57:45.398Z,22.23
2018-09-14T17:00:13.906Z,22.46
2018-09-14T17:02:42.488Z,22.40
2018-09-14T17:05:10.962Z,22.15
2018-09-14T17:07:40.328Z,22.11
2018-09-14T17:10:09.913Z,21.99
2018-09-14T17:12:38.410Z,21.65
2018-09-14T17:15:07.727Z,21.42
2018-09-14T17:17:36.321Z,21.25
2018-09-14T17:20:05.062Z,21.08
2018-09-14T17:22:33.583Z,20.95
2018-09-14T17:25:02.210Z,20.90
2018-09-14T17:27:30.767Z,20.74
2018-09-14T17:29:59.277Z,20.63
2018-09-14T17:32:27.799Z,20.52
2018-09-14T17:34:56.269Z,20.54
2018-09-14T17:37:24.778Z,20.41
2018-09-14T17:39:53.261Z,20.41
2018-09-14T17:42:21.813Z,20.45
2018-09-14T17:44:50.313Z,20.48
2018-09-14T17:47:18.887Z,20.47
2018-09-14T17:49:47.370Z,20.51
2018-09-14T17:52:15.869Z,20.46
2018-09-14T17:54:44.417Z,20.38
2018-09-14T17:57:12.947Z,20.40
2018-09-14T17:59:41.454Z,20.22
2018-09-14T18:02:09.949Z,20.17
2018-09-14T18:04:38.433Z,20.02
2018-09-14T18:07:06.978Z,19.87
2018-09-14T18:09:35.478Z,19.93
2018-09-14T18:12:04.027Z,19.74
2018-09-14T18:14:32.486Z,19.62
2018-09-14T18:17:00.981Z,19.49
2018-09-14T18:19:29.468Z,19.51
2018-09-14T18:21:58.001Z,19.50
2018-09-14T18:24:26.449Z,19.49
2018-09-14T18:26:54.992Z,19.40
2018-09-14T18:29:23.457Z,19.35
2018-09-14T18:31:51.971Z,19.39
2018-09-14T18:34:20.458Z,19.39
2018-09-14T18:36:48.995Z,19.35
2018-09-14T18:39:17.469Z,19.31
2018-09-14T18:41:45.991Z,19.35
2018-09-14T18:44:14.506Z,19.31
2018-09-14T18:46:43.108Z,19.41
2018-09-14T18:49:11.610Z,19.46
2018-09-14T18:51:40.147Z,19.46
2018-09-14T18:54:08.807Z,19.51
2018-09-14T18:56:37.306Z,19.44
2018-09-14T18:59:06.021Z,19.34
2018-09-14T19:01:34.530Z,19.41
2018-09-14T19:04:03.028Z,19.48
2018-09-14T19:06:31.555Z,19.39
2018-09-14T19:09:00.039Z,19.42
2018-09-14T19:11:28.550Z,19.33
2018-09-14T19:13:57.037Z,19.34
2018-09-14T19:16:25.566Z,19.32
2018-09-14T19:18:54.065Z,19.30
2018-09-14T19:21:22.593Z,19.27
2018-09-14T19:23:51.098Z,19.25
2018-09-14T19:26:19.575Z,19.34
2018-09-14T19:28:48.074Z,19.29
2018-09-14T19:31:16.594Z,19.36
2018-09-14T19:33:45.160Z,19.36
2018-09-14T19:36:13.710Z,19.21
2018-09-14T19:38:42.278Z,19.28
2018-09-14T19:41:10.774Z,19.24
2018-09-14T19:43:39.302Z,19.11
2018-09-14T19:46:07.836Z,18.91
2018-09-14T19:48:36.361Z,18.86
2018-09-14T19:51:04.874Z,18.81
2018-09-14T19:53:38.401Z,18.80
2018-09-14T19:56:06.899Z,18.72
2018-09-14T19:58:35.403Z,18.72
2018-09-14T20:01:03.895Z,18.63
2018-09-14T20:03:32.428Z,18.58
2018-09-14T20:06:00.968Z,18.60
2018-09-14T20:08:29.461Z,18.55
2018-09-14T20:10:57.965Z,18.64
2018-09-14T20:13:26.482Z,18.60
2018-09-14T20:15:54.982Z,18.50
2018-09-14T20:18:23.603Z,18.46
2018-09-14T20:20:52.062Z,18.50
2018-09-14T20:23:20.654Z,18.44
2018-09-14T20:25:49.205Z,18.39
2018-09-14T20:28:17.701Z,18.47
2018-09-14T20:30:46.181Z,18.57
2018-09-14T20:33:14.725Z,18.40
2018-09-14T20:35:43.194Z,18.45
2018-09-14T20:38:11.730Z,18.54
2018-09-14T20:40:40.237Z,18.55
2018-09-14T20:43:08.802Z,18.35
2018-09-14T20:45:37.342Z,18.34
2018-09-14T20:48:05.989Z,18.15
2018-09-14T20:50:34.498Z,18.30
2018-09-14T20:53:03.030Z,18.21
2018-09-14T20:55:32.153Z,18.17
2018-09-14T20:58:00.707Z,18.03
2018-09-14T21:00:30.958Z,18.03
2018-09-14T21:02:59.524Z,18.18
2018-09-14T21:05:29.751Z,18.11
2018-09-14T21:07:58.434Z,18.07
2018-09-14T21:10:28.719Z,18.17
2018-09-14T21:12:57.225Z,18.23
2018-09-14T21:15:25.777Z,18.19
2018-09-14T21:17:54.302Z,18.14
2018-09-14T21:20:22.828Z,18.17
2018-09-14T21:22:51.415Z,18.18
2018-09-14T21:25:19.959Z,18.12
2018-09-14T21:27:48.562Z,18.09
2018-09-14T21:30:17.226Z,18.04
2018-09-14T21:32:45.756Z,18.13
2018-09-14T21:35:14.273Z,18.16
2018-09-14T21:37:42.787Z,18.11
2018-09-14T21:40:13.923Z,18.04
2018-09-14T21:42:42.448Z,18.09
2018-09-14T21:45:11.289Z,18.13
2018-09-14T21:47:39.836Z,18.08
2018-09-14T21:50:08.383Z,18.04
2018-09-14T21:52:36.883Z,18.01
2018-09-14T21:55:05.526Z,17.98
2018-09-14T21:57:34.038Z,18.06
2018-09-14T22:00:09.315Z,18.06
2018-09-14T22:02:37.799Z,18.00
2018-09-14T22:05:06.546Z,18.05
2018-09-14T22:07:35.058Z,17.99
2018-09-14T22:10:03.623Z,18.02
2018-09-14T22:12:32.125Z,17.95
2018-09-14T22:15:00.634Z,17.96
2018-09-14T22:17:29.145Z,17.98
2018-09-14T22:19:57.698Z,17.91
2018-09-14T22:22:26.170Z,17.89
2018-09-14T22:24:55.006Z,17.83
2018-09-14T22:27:23.500Z,17.77
2018-09-14T22:29:52.004Z,17.75
2018-09-14T22:32:20.488Z,17.72
2018-09-14T22:34:49.143Z,17.77
2018-09-14T22:37:17.644Z,17.80
2018-09-14T22:39:46.169Z,17.82
2018-09-14T22:42:14.659Z,17.73
2018-09-14T22:44:43.172Z,17.66
2018-09-14T22:47:11.673Z,17.57
2018-09-14T22:49:40.200Z,17.62
2018-09-14T22:52:08.868Z,17.53
2018-09-14T22:54:37.394Z,17.40
2018-09-14T22:57:05.880Z,17.33
2018-09-14T22:59:34.410Z,17.25
2018-09-14T23:02:02.909Z,17.18
2018-09-14T23:04:31.424Z,17.13
2018-09-14T23:06:59.952Z,17.05
2018-09-14T23:09:28.463Z,17.02
2018-09-14T23:11:56.944Z,16.98
2018-09-14T23:14:25.449Z,17.01
2018-09-14T23:16:53.938Z,16.98
2018-09-14T23:19:22.449Z,16.99
2018-09-14T23:21:50.935Z,17.02
2018-09-14T23:24:19.454Z,17.10
2018-09-14T23:26:47.980Z,17.07
2018-09-14T23:29:16.486Z,17.14
2018-09-14T23:31:44.989Z,17.16
2018-09-14T23:39:58.597Z,17.05
2018-09-14T23:45:19.810Z,17.07
2018-09-14T23:47:48.283Z,17.03
2018-09-14T23:50:16.808Z,17.09
2018-09-14T23:52:45.305Z,17.06
